Time;durP1;ratioP1;P1;durP2;ratioP2;P2;SDS_P1;SDS_P2;PMS_P1;PMS_P2;Temp;Humidity;BMP_temperature;BMP_pressure;BME280_temperature;BME280_humidity;BME280_pressure;Samples;Min_cycle;Max_cycle;Signal;HPM_P1;HPM_P2
2022/09/28 00:01:52;;;;;;;44.30;28.15;;;;;;;27.71;77.06;98164.97;4989094;28;20046;-70
2022/09/28 00:04:41;;;;;;;47.47;31.77;;;;;;;27.82;76.57;98159.81;4988739;28;20054;-72
2022/09/28 00:07:30;;;;;;;41.85;29.02;;;;;;;27.83;76.39;98164.97;4988228;28;20434;-71
2022/09/28 00:10:12;;;;;;;45.72;31.02;;;;;;;27.72;77.02;98170.16;4988492;28;20054;-71
2022/09/28 00:13:01;;;;;;;38.40;29.38;;;;;;;27.83;76.52;98164.19;4973828;28;20117;-71
2022/09/28 00:16:14;;;;;;;42.08;30.13;;;;;;;27.96;75.95;98165.84;4973998;28;20427;-71
2022/09/28 00:18:51;;;;;;;47.95;30.77;;;;;;;27.70;77.48;98169.66;4968779;28;20129;-72
2022/09/28 00:21:41;;;;;;;45.38;31.60;;;;;;;27.67;77.42;98173.13;4953808;28;20078;-70
2022/09/28 00:24:30;;;;;;;47.72;31.77;;;;;;;27.80;76.93;98168.44;4986496;28;20068;-71
2022/09/28 00:27:19;;;;;;;57.67;33.75;;;;;;;27.72;77.15;98172.09;4976228;28;20078;-71
2022/09/28 00:30:09;;;;;;;51.53;34.85;;;;;;;27.62;77.38;98176.06;4987575;28;20081;-70
2022/09/28 00:32:58;;;;;;;56.15;34.22;;;;;;;27.88;76.33;98170.31;4986981;28;20101;-70
2022/09/28 00:35:42;;;;;;;49.00;33.10;;;;;;;27.67;77.25;98177.81;4987644;28;20054;-71
2022/09/28 00:38:39;;;;;;;54.33;34.60;;;;;;;27.86;76.60;98180.84;4986736;28;20084;-71
2022/09/28 00:41:15;;;;;;;55.60;36.17;;;;;;;27.65;77.46;98177.34;4986544;28;20050;-71
2022/09/28 00:44:24;;;;;;;58.25;37.63;;;;;;;27.58;77.30;98179.88;4986024;28;20077;-71
2022/09/28 00:47:39;;;;;;;54.15;35.33;;;;;;;27.62;77.77;98186.31;4954788;28;20382;-71
2022/09/28 00:50:35;;;;;;;59.47;39.42;;;;;;;27.49;78.32;98183.50;4986653;28;20046;-70
2022/09/28 00:53:29;;;;;;;62.17;38.75;;;;;;;27.42;78.78;98193.44;4985707;28;20085;-72
2022/09/28 00:56:23;;;;;;;59.97;39.15;;;;;;;27.68;77.64;98198.72;4986211;28;20083;-71
2022/09/28 00:59:07;;;;;;;63.00;38.30;;;;;;;27.83;77.03;98192.56;4986172;28;20038;-72
2022/09/28 01:01:56;;;;;;;59.20;37.42;;;;;;;27.72;77.30;98196.88;4970230;28;20132;-71
2022/09/28 01:04:39;;;;;;;60.83;36.85;;;;;;;27.73;77.78;98198.53;4987063;28;20506;-71
2022/09/28 01:07:37;;;;;;;56.15;37.50;;;;;;;27.85;77.01;98209.56;4970143;28;20109;-71
2022/09/28 01:10:14;;;;;;;55.30;37.45;;;;;;;27.94;76.57;98198.47;4963790;28;20055;-71
2022/09/28 01:13:03;;;;;;;57.22;36.33;;;;;;;27.67;77.80;98206.19;4953413;28;20051;-71
2022/09/28 01:16:12;;;;;;;58.10;37.63;;;;;;;27.97;76.45;98219.03;4950819;28;20061;-71
2022/09/28 01:19:24;;;;;;;53.20;37.22;;;;;;;27.95;76.71;98221.34;4982505;28;20074;-72
2022/09/28 01:22:34;;;;;;;54.58;37.78;;;;;;;27.91;77.27;98222.00;4966828;28;20106;-71
2022/09/28 01:25:56;;;;;;;56.45;37.42;;;;;;;27.98;76.85;98231.72;4978751;28;20486;-72
2022/09/28 01:28:32;;;;;;;54.55;36.83;;;;;;;28.11;76.19;98230.59;4986869;28;20049;-71
2022/09/28 01:31:29;;;;;;;62.40;39.92;;;;;;;28.06;76.33;98233.56;4985254;28;20085;-71
2022/09/28 01:34:24;;;;;;;65.00;40.20;;;;;;;27.92;77.10;98234.66;4985295;28;20176;-71
2022/09/28 01:37:18;;;;;;;61.33;39.95;;;;;;;28.02;76.88;98235.38;4985116;28;20054;-70
2022/09/28 01:40:10;;;;;;;60.85;40.15;;;;;;;27.96;77.35;98242.28;4987260;28;20070;-71
2022/09/28 01:43:03;;;;;;;60.47;40.17;;;;;;;27.98;77.31;98239.97;4970918;28;20038;-71
2022/09/28 01:46:05;;;;;;;61.58;39.40;;;;;;;28.14;76.81;98231.84;4969475;28;20050;-73
2022/09/28 01:48:52;;;;;;;63.05;39.72;;;;;;;28.19;77.09;98237.16;4952712;28;20434;-72
2022/09/28 01:51:50;;;;;;;60.65;39.53;;;;;;;28.21;77.00;98234.84;4966984;28;20495;-72
2022/09/28 01:55:12;;;;;;;51.13;38.40;;;;;;;28.25;77.13;98233.00;4949942;28;20130;-72
2022/09/28 01:58:10;;;;;;;63.33;39.88;;;;;;;28.40;76.78;98239.81;4951492;28;20053;-72
2022/09/28 02:01:11;;;;;;;57.35;38.40;;;;;;;28.56;76.21;98240.75;4949904;28;20051;-72
2022/09/28 02:04:13;;;;;;;64.40;39.88;;;;;;;28.45;76.97;98247.84;4951871;28;20050;-71
2022/09/28 02:07:19;;;;;;;60.38;36.42;;;;;;;28.71;75.79;98247.56;4963021;28;20055;-71
2022/09/28 02:10:00;;;;;;;64.07;38.97;;;;;;;28.58;74.25;98251.47;4946537;29;20055;-73
2022/09/28 02:13:11;;;;;;;55.10;35.92;;;;;;;28.82;75.26;98256.19;4968544;28;20046;-71
2022/09/28 02:15:56;;;;;;;51.30;34.67;;;;;;;28.85;75.14;98261.81;4967136;28;20137;-70
2022/09/28 02:18:46;;;;;;;67.55;39.50;;;;;;;28.93;74.69;98268.38;4968670;28;20046;-70
2022/09/28 02:21:31;;;;;;;52.33;35.65;;;;;;;28.87;75.69;98267.81;4985391;28;20109;-71
2022/09/28 02:24:31;;;;;;;50.72;35.30;;;;;;;29.01;74.95;98267.44;4965401;28;20057;-71
2022/09/28 02:27:23;;;;;;;52.70;34.03;;;;;;;29.22;73.38;98261.78;4965894;28;20070;-70
2022/09/28 02:30:19;;;;;;;59.20;34.55;;;;;;;29.25;73.17;98266.63;4965587;28;20137;-71
2022/09/28 02:33:04;;;;;;;51.97;36.10;;;;;;;29.12;73.62;98278.84;4950036;28;20054;-73
2022/09/28 02:35:56;;;;;;;48.47;34.50;;;;;;;29.20;73.14;98275.16;4949539;28;20046;-72
2022/09/28 02:38:43;;;;;;;53.90;35.55;;;;;;;29.14;73.35;98279.31;4965449;28;20035;-70
2022/09/28 02:41:52;;;;;;;57.05;34.42;;;;;;;29.14;72.90;98284.03;4964852;28;20047;-70
2022/09/28 02:45:09;;;;;;;52.78;32.75;;;;;;;29.34;73.72;98285.84;4944516;28;20073;-71
2022/09/28 02:48:23;;;;;;;60.10;34.78;;;;;;;29.54;72.45;98284.06;4970129;28;20038;-71
2022/09/28 02:52:00;;;;;;;55.95;33.35;;;;;;;29.41;72.46;98282.50;4984679;28;20138;-70
2022/09/28 02:55:06;;;;;;;49.47;29.90;;;;;;;29.61;71.94;98283.44;4970056;28;20053;-72
2022/09/28 02:58:02;;;;;;;47.58;29.58;;;;;;;29.81;71.05;98299.09;4985992;28;20061;-71
2022/09/28 03:00:48;;;;;;;53.15;28.90;;;;;;;29.64;70.01;98302.13;4955193;28;20444;-72
2022/09/28 03:03:54;;;;;;;58.63;31.70;;;;;;;29.49;71.14;98300.88;4969195;28;20057;-70
2022/09/28 03:07:05;;;;;;;50.42;32.03;;;;;;;29.81;70.82;98310.16;4960433;28;20046;-71
2022/09/28 03:10:15;;;;;;;46.90;30.55;;;;;;;29.93;71.85;98312.06;4964953;28;20527;-70
2022/09/28 03:12:59;;;;;;;49.20;31.23;;;;;;;30.13;69.59;98318.53;4972424;28;20058;-71
2022/09/28 03:15:48;;;;;;;55.78;30.10;;;;;;;30.05;70.80;98317.53;4988333;28;20054;-71
2022/09/28 03:18:38;;;;;;;57.10;30.08;;;;;;;30.26;70.56;98313.72;4987465;28;20058;-70
2022/09/28 03:21:27;;;;;;;56.50;29.95;;;;;;;30.11;68.81;98318.06;4974380;28;20413;-71
2022/09/28 03:24:16;;;;;;;44.58;27.90;;;;;;;30.25;69.09;98321.25;4971490;28;20049;-72
2022/09/28 03:27:05;;;;;;;62.65;28.80;;;;;;;30.37;70.06;98319.59;4988551;28;20057;-72
2022/09/28 03:29:47;;;;;;;48.83;26.63;;;;;;;30.49;68.23;98321.47;4973256;28;20050;-72
2022/09/28 03:32:36;;;;;;;51.35;26.60;;;;;;;30.64;67.34;98315.13;4971840;28;20053;-72
2022/09/28 03:35:19;;;;;;;43.67;27.30;;;;;;;30.73;65.45;98320.50;4963566;28;20081;-72
2022/09/28 03:38:08;;;;;;;60.75;27.05;;;;;;;30.89;66.71;98323.25;4988271;28;20042;-71
2022/09/28 03:41:02;;;;;;;41.55;24.27;;;;;;;31.05;65.91;98326.03;4972098;28;20081;-71
2022/09/28 03:43:51;;;;;;;38.85;25.10;;;;;;;31.11;65.12;98324.59;4964258;28;20050;-71
2022/09/28 03:46:40;;;;;;;45.17;25.17;;;;;;;31.03;64.96;98332.75;4988262;28;20046;-71
2022/09/28 03:49:22;;;;;;;47.33;24.45;;;;;;;31.04;64.17;98333.56;4980147;28;20050;-72
2022/09/28 03:52:11;;;;;;;44.42;25.15;;;;;;;31.01;65.29;98335.09;4971058;28;20050;-71
2022/09/28 03:54:53;;;;;;;41.85;26.63;;;;;;;30.97;66.11;98334.16;4988770;28;20059;-71
2022/09/28 03:57:42;;;;;;;43.33;26.75;;;;;;;31.17;63.28;98334.25;4978151;28;20510;-72
2022/09/28 04:00:31;;;;;;;45.05;27.40;;;;;;;31.06;64.73;98334.00;4968530;28;20378;-71
2022/09/28 04:03:13;;;;;;;45.95;27.65;;;;;;;31.36;64.49;98331.53;4966957;28;20057;-71
2022/09/28 04:06:02;;;;;;;56.03;29.05;;;;;;;31.49;64.23;98334.19;4966907;28;20109;-71
2022/09/28 04:08:44;;;;;;;52.60;27.45;;;;;;;31.57;63.69;98339.53;4952160;28;20502;-72
2022/09/28 04:11:40;;;;;;;55.08;28.40;;;;;;;31.70;64.31;98336.63;4950935;28;20058;-72
2022/09/28 04:14:36;;;;;;;57.35;29.60;;;;;;;31.94;63.38;98332.78;4947361;28;20043;-72
2022/09/28 04:17:31;;;;;;;57.80;29.33;;;;;;;31.82;62.60;98332.94;4941598;28;20525;-72
2022/09/28 04:20:27;;;;;;;39.90;28.00;;;;;;;32.07;62.49;98339.81;4960121;28;20805;-72
2022/09/28 04:23:19;;;;;;;49.20;29.80;;;;;;;32.21;60.68;98341.25;4980609;28;20050;-72
2022/09/28 04:26:01;;;;;;;43.55;28.17;;;;;;;32.41;59.87;98345.59;4971708;28;20086;-72
2022/09/28 04:29:15;;;;;;;42.80;28.77;;;;;;;32.66;61.45;98340.53;4951942;28;20118;-73
2022/09/28 04:31:56;;;;;;;53.05;28.63;;;;;;;32.95;58.82;98339.00;4938333;28;20414;-72
2022/09/28 04:34:53;;;;;;;38.30;27.05;;;;;;;33.15;58.28;98342.53;4970335;28;20065;-72
2022/09/28 04:37:30;;;;;;;42.45;26.70;;;;;;;33.58;55.85;98335.97;4970887;28;20566;-72
2022/09/28 04:40:19;;;;;;;34.95;26.10;;;;;;;33.53;54.37;98337.09;4970060;28;20057;-71
2022/09/28 04:43:02;;;;;;;35.27;25.80;;;;;;;34.06;54.06;98341.78;4966577;28;20153;-72
2022/09/28 04:45:56;;;;;;;44.60;26.65;;;;;;;33.63;54.66;98336.50;4951338;28;20046;-72
2022/09/28 04:48:58;;;;;;;38.97;24.65;;;;;;;33.60;53.57;98337.19;4967623;28;20490;-72
2022/09/28 04:51:55;;;;;;;43.67;25.15;;;;;;;34.13;55.58;98336.28;4966348;28;20153;-72
2022/09/28 04:54:39;;;;;;;39.85;24.85;;;;;;;34.09;54.93;98346.59;4949058;28;20050;-71
2022/09/28 04:57:30;;;;;;;40.22;26.23;;;;;;;34.04;53.70;98344.94;4981826;28;20061;-72
2022/09/28 05:00:13;;;;;;;34.50;24.50;;;;;;;34.11;53.76;98336.66;5002497;28;20085;-71
2022/09/28 05:03:13;;;;;;;32.95;23.73;;;;;;;34.27;52.73;98335.66;4986276;28;20065;-71
2022/09/28 05:06:21;;;;;;;32.72;22.77;;;;;;;34.87;52.30;98335.47;4983623;28;20054;-72
2022/09/28 05:09:12;;;;;;;34.50;21.30;;;;;;;34.96;50.01;98331.53;4985630;28;20074;-72
2022/09/28 05:12:01;;;;;;;31.80;21.63;;;;;;;33.65;50.84;98327.75;4968218;28;20054;-72
2022/09/28 05:14:44;;;;;;;41.67;23.23;;;;;;;34.17;52.08;98334.38;4972235;28;20142;-69
2022/09/28 05:17:33;;;;;;;39.13;25.40;;;;;;;34.49;51.86;98331.09;5002683;28;20046;-70
2022/09/28 05:20:47;;;;;;;38.03;23.92;;;;;;;35.25;51.16;98322.19;4988768;28;20053;-69
2022/09/28 05:23:38;;;;;;;43.10;25.20;;;;;;;34.38;50.63;98322.66;4985963;28;20145;-70
2022/09/28 05:26:28;;;;;;;32.88;24.63;;;;;;;34.78;53.54;98320.22;5002262;28;20154;-69
2022/09/28 05:29:24;;;;;;;36.15;27.05;;;;;;;34.09;50.52;98319.53;4984659;28;20050;-69
2022/09/28 05:32:31;;;;;;;37.80;26.00;;;;;;;34.89;50.96;98321.94;4967588;28;20046;-69
2022/09/28 05:35:47;;;;;;;43.92;25.52;;;;;;;34.80;49.16;98321.47;4977231;28;20685;-69
2022/09/28 05:38:36;;;;;;;43.47;24.40;;;;;;;35.45;50.68;98321.94;4966014;28;20058;-68
2022/09/28 05:41:25;;;;;;;35.92;27.85;;;;;;;34.86;47.64;98305.97;4961224;28;20084;-67
2022/09/28 05:44:01;;;;;;;35.67;26.00;;;;;;;34.97;51.42;98314.44;4989970;28;20454;-67
2022/09/28 05:46:58;;;;;;;41.47;28.55;;;;;;;34.94;50.43;98311.63;5000499;28;20072;-68
2022/09/28 05:49:47;;;;;;;37.17;28.20;;;;;;;35.16;50.25;98305.00;4986234;28;20529;-70
2022/09/28 05:52:29;;;;;;;37.72;27.55;;;;;;;34.99;49.10;98302.91;4983707;28;20056;-68
2022/09/28 05:55:27;;;;;;;39.08;26.83;;;;;;;35.10;48.14;98303.75;4982768;28;20061;-68
2022/09/28 05:58:05;;;;;;;34.20;25.17;;;;;;;35.20;50.05;98297.47;4984969;28;20050;-69
2022/09/28 06:00:55;;;;;;;34.45;23.05;;;;;;;35.53;47.49;98297.66;4965241;28;20055;-68
2022/09/28 06:03:37;;;;;;;37.33;26.13;;;;;;;35.88;49.38;98291.44;4965878;28;20062;-68
2022/09/28 06:06:29;;;;;;;40.50;27.48;;;;;;;35.52;48.29;98302.41;4950021;28;20512;-68
2022/09/28 06:09:11;;;;;;;44.20;27.88;;;;;;;35.37;49.32;98290.41;4965806;28;20606;-69
2022/09/28 06:12:11;;;;;;;39.88;27.25;;;;;;;35.15;49.93;98288.66;5000776;28;20093;-69
2022/09/28 06:14:58;;;;;;;39.00;27.27;;;;;;;35.24;51.82;98284.34;4971487;28;20073;-68
2022/09/28 06:17:47;;;;;;;40.45;27.27;;;;;;;35.39;49.81;98287.19;4985674;28;20127;-69
2022/09/28 06:20:47;;;;;;;40.92;28.20;;;;;;;35.31;47.69;98291.94;4986690;28;20049;-68
2022/09/28 06:23:46;;;;;;;35.42;26.20;;;;;;;35.61;47.11;98288.91;4962373;28;20475;-68
2022/09/28 06:26:24;;;;;;;36.22;25.33;;;;;;;35.80;49.00;98281.44;4995756;28;20046;-68
2022/09/28 06:29:18;;;;;;;36.50;25.65;;;;;;;35.79;47.53;98277.03;4971698;28;20054;-68
2022/09/28 06:32:00;;;;;;;37.22;24.70;;;;;;;35.70;46.79;98280.22;4990798;28;20056;-68
2022/09/28 06:34:53;;;;;;;36.58;26.02;;;;;;;35.90;46.91;98272.28;4980788;28;20038;-68
2022/09/28 06:37:36;;;;;;;37.28;24.27;;;;;;;35.82;45.87;98270.66;4989927;28;20056;-68
2022/09/28 06:40:35;;;;;;;33.38;25.63;;;;;;;35.59;45.45;98262.59;4975222;28;20045;-67
2022/09/28 06:43:14;;;;;;;38.42;25.75;;;;;;;35.56;48.86;98255.81;4992027;28;20054;-68
2022/09/28 06:46:19;;;;;;;32.90;24.30;;;;;;;35.04;48.00;98255.09;5009848;28;20765;-68
2022/09/28 06:49:20;;;;;;;32.72;23.80;;;;;;;35.89;47.36;98251.16;4989766;28;20061;-68
2022/09/28 06:52:27;;;;;;;30.63;22.13;;;;;;;35.31;46.39;98243.72;4989836;28;21512;-68
2022/09/28 06:55:13;;;;;;;34.65;22.17;;;;;;;35.24;47.60;98244.50;4972554;28;20051;-68
2022/09/28 06:58:06;;;;;;;32.53;23.67;;;;;;;35.41;47.07;98245.78;4959222;28;20142;-69
2022/09/28 07:00:48;;;;;;;27.67;21.38;;;;;;;35.58;43.20;98239.47;4949378;28;20051;-68
2022/09/28 07:03:48;;;;;;;26.75;21.20;;;;;;;35.57;46.09;98237.84;4934331;29;20066;-68
2022/09/28 07:06:57;;;;;;;31.73;19.88;;;;;;;35.71;45.49;98228.75;4951167;28;20066;-68
2022/09/28 07:10:08;;;;;;;26.02;22.23;;;;;;;35.73;47.63;98226.38;4949669;28;20047;-68
2022/09/28 07:13:15;;;;;;;32.78;23.77;;;;;;;35.25;45.17;98220.97;4938065;28;20070;-68
2022/09/28 07:16:17;;;;;;;34.70;23.42;;;;;;;35.80;46.52;98217.22;4968380;28;20057;-69
2022/09/28 07:19:15;;;;;;;33.47;23.33;;;;;;;35.92;49.14;98214.03;4966271;28;20061;-69
2022/09/28 07:21:57;;;;;;;35.17;24.35;;;;;;;35.53;46.69;98209.16;4950525;28;20098;-69
2022/09/28 07:24:48;;;;;;;34.50;24.13;;;;;;;35.67;45.06;98208.38;4959542;28;20075;-69
2022/09/28 07:27:49;;;;;;;29.23;23.55;;;;;;;35.57;45.34;98201.56;4967837;28;20171;-69
2022/09/28 07:30:43;;;;;;;32.20;24.88;;;;;;;35.28;45.11;98200.69;4967025;28;20043;-70
2022/09/28 07:33:52;;;;;;;36.33;24.70;;;;;;;35.48;46.24;98184.41;4954876;28;20134;-70
2022/09/28 07:36:38;;;;;;;31.05;24.27;;;;;;;35.14;44.90;98193.03;4934746;28;20054;-69
2022/09/28 07:39:27;;;;;;;37.42;26.17;;;;;;;34.66;45.95;98185.56;4959006;28;20106;-69
2022/09/28 07:42:09;;;;;;;42.55;25.55;;;;;;;35.21;48.17;98181.91;4962795;28;20043;-70
2022/09/28 07:45:06;;;;;;;37.50;25.00;;;;;;;34.42;47.87;98184.19;4965458;28;20047;-69
2022/09/28 07:47:56;;;;;;;40.17;26.58;;;;;;;34.52;46.58;98175.09;4953703;28;20085;-70
2022/09/28 07:51:13;;;;;;;31.17;23.98;;;;;;;34.85;46.95;98172.53;4969005;28;20054;-69
2022/09/28 07:54:26;;;;;;;28.85;25.75;;;;;;;34.61;50.18;98171.19;4949242;28;20846;-70
2022/09/28 07:57:32;;;;;;;33.63;26.38;;;;;;;34.51;50.04;98165.16;4998755;28;20777;-70
2022/09/28 08:00:38;;;;;;;30.00;25.77;;;;;;;34.61;46.43;98154.47;4985952;28;20160;-70
2022/09/28 08:03:28;;;;;;;31.60;26.05;;;;;;;34.70;46.63;98152.97;4991471;28;20069;-70
2022/09/28 08:06:13;;;;;;;37.78;25.70;;;;;;;34.79;46.71;98144.22;4984497;28;20729;-68
2022/09/28 08:09:04;;;;;;;40.78;25.35;;;;;;;34.52;47.52;98138.88;4984612;28;20053;-72
2022/09/28 08:12:06;;;;;;;35.00;26.30;;;;;;;34.48;46.92;98143.63;4985006;28;20061;-69
2022/09/28 08:15:14;;;;;;;36.72;25.90;;;;;;;34.59;51.33;98140.13;4986916;28;20046;-68
2022/09/28 08:18:17;;;;;;;37.72;25.80;;;;;;;34.65;48.17;98135.78;4993344;28;20049;-72
2022/09/28 08:24:14;;;;;;;35.88;25.05;;;;;;;34.46;48.84;98125.72;4974751;28;20065;-72
2022/09/28 08:26:52;;;;;;;42.00;27.20;;;;;;;34.47;47.63;98122.53;4985424;28;20076;-72
2022/09/28 08:29:49;;;;;;;39.70;26.15;;;;;;;34.00;50.01;98115.78;4986781;28;20362;-69
2022/09/28 08:32:49;;;;;;;33.15;25.58;;;;;;;34.17;49.17;98113.56;4987571;28;20120;-69
2022/09/28 08:35:58;;;;;;;38.38;25.48;;;;;;;34.55;50.46;98100.28;4988257;28;20053;-69
2022/09/28 08:39:33;;;;;;;36.78;26.25;;;;;;;34.47;47.81;98100.25;4965460;28;20133;-68
2022/09/28 08:43:04;;;;;;;40.08;25.60;;;;;;;34.50;47.16;98099.44;4965294;28;20062;-70
2022/09/28 08:46:06;;;;;;;37.95;25.73;;;;;;;34.20;49.05;98101.66;4987386;28;20057;-68
2022/09/28 08:49:40;;;;;;;33.28;24.58;;;;;;;34.84;53.55;98081.75;4987037;28;20112;-67
2022/09/28 08:52:33;;;;;;;39.20;26.00;;;;;;;34.64;48.48;98078.44;4970037;28;20121;-69
2022/09/28 08:56:01;;;;;;;37.15;26.17;;;;;;;34.02;48.96;98071.66;4973960;28;20066;-68
2022/09/28 08:58:56;;;;;;;38.38;25.98;;;;;;;34.20;50.13;98073.78;4988424;28;20053;-67
2022/09/28 09:02:08;;;;;;;40.85;25.95;;;;;;;34.04;49.46;98051.78;4986509;28;20062;-67
2022/09/28 09:04:44;;;;;;;31.75;24.08;;;;;;;34.38;50.42;98060.78;4986480;28;20104;-68
2022/09/28 09:08:07;;;;;;;36.50;26.55;;;;;;;34.38;47.98;98052.44;4969699;28;20133;-69
2022/09/28 09:11:23;;;;;;;35.55;25.40;;;;;;;34.44;49.22;98055.66;4985324;28;20046;-68
2022/09/28 09:14:42;;;;;;;38.28;25.88;;;;;;;34.21;49.27;98047.56;4985720;28;20359;-70
2022/09/28 09:17:24;;;;;;;36.22;25.35;;;;;;;34.47;49.03;98047.31;4987028;28;20046;-70
2022/09/28 09:20:51;;;;;;;42.92;27.05;;;;;;;34.17;48.56;98046.75;4986876;28;20066;-69
2022/09/28 09:23:51;;;;;;;40.90;28.75;;;;;;;34.00;48.39;98043.41;4969939;28;20482;-70
2022/09/28 09:26:40;;;;;;;36.60;28.10;;;;;;;33.89;48.61;98048.09;4984731;28;20445;-70
2022/09/28 09:29:49;;;;;;;37.45;28.10;;;;;;;34.25;47.74;98049.16;4985010;28;20449;-71
2022/09/28 09:33:07;;;;;;;34.53;27.83;;;;;;;33.98;48.45;98047.78;4967883;28;20046;-69
2022/09/28 09:36:21;;;;;;;39.83;27.83;;;;;;;34.42;51.54;98042.09;4982702;28;20367;-69
2022/09/28 09:40:01;;;;;;;43.60;26.77;;;;;;;34.16;48.44;98036.78;4949502;28;20051;-69
2022/09/28 09:43:19;;;;;;;36.63;26.20;;;;;;;34.40;48.59;98024.97;4984611;28;20156;-68
2022/09/28 09:47:06;;;;;;;41.30;26.20;;;;;;;34.16;48.89;98026.44;4963101;28;20058;-70
2022/09/28 09:50:16;;;;;;;34.92;25.67;;;;;;;34.33;48.99;98024.94;4953270;28;20542;-69
2022/09/28 09:53:24;;;;;;;37.95;27.58;;;;;;;34.37;47.20;98017.41;4966614;28;20513;-69
2022/09/28 09:56:33;;;;;;;40.33;26.55;;;;;;;34.36;50.25;98017.78;4966317;28;20416;-70
2022/09/28 09:59:33;;;;;;;45.22;27.05;;;;;;;34.33;49.15;98016.59;4943839;28;20154;-67
2022/09/28 10:02:30;;;;;;;38.90;26.67;;;;;;;34.11;48.58;98015.66;4961392;28;20047;-70
2022/09/28 10:05:39;;;;;;;34.40;25.88;;;;;;;34.14;49.81;98004.50;4950061;28;20058;-70
2022/09/28 10:08:23;;;;;;;34.55;27.98;;;;;;;34.22;49.72;98004.59;4949182;28;20047;-70
2022/09/28 10:11:17;;;;;;;37.05;25.95;;;;;;;34.37;51.13;98009.03;4948222;28;20502;-70
2022/09/28 10:14:02;;;;;;;35.55;25.65;;;;;;;34.42;51.44;97997.53;4962493;28;20046;-70
2022/09/28 10:17:00;;;;;;;45.05;28.52;;;;;;;34.08;51.05;97991.34;4966936;28;20105;-69
2022/09/28 10:20:18;;;;;;;39.95;26.67;;;;;;;33.88;50.18;97982.47;4919057;29;20052;-69
2022/09/28 10:23:46;;;;;;;43.72;27.58;;;;;;;33.98;51.80;97987.31;4955628;28;20142;-69
2022/09/28 10:26:39;;;;;;;39.53;27.30;;;;;;;34.09;51.04;97979.84;4964462;28;20054;-68
2022/09/28 10:29:33;;;;;;;32.08;27.40;;;;;;;34.27;51.35;97979.16;4970169;28;20071;-67
2022/09/28 10:32:24;;;;;;;40.72;27.13;;;;;;;34.07;50.13;97970.25;4960930;28;20054;-68
2022/09/28 10:35:24;;;;;;;38.85;27.30;;;;;;;33.92;49.77;97969.38;4961546;28;20639;-69
2022/09/28 10:38:18;;;;;;;42.38;26.52;;;;;;;34.14;51.04;97967.50;4969491;28;20481;-70
2022/09/28 10:41:21;;;;;;;39.13;26.90;;;;;;;34.02;51.10;97960.28;4956645;28;20376;-70
2022/09/28 10:44:20;;;;;;;33.05;26.63;;;;;;;33.91;51.13;97957.44;4964282;28;20054;-74
2022/09/28 10:47:34;;;;;;;33.45;26.83;;;;;;;33.87;50.16;97964.19;4972731;28;20429;-69
2022/09/28 10:50:25;;;;;;;32.65;24.67;;;;;;;33.86;51.01;97959.78;4982441;28;20058;-68
2022/09/28 10:53:27;;;;;;;43.60;26.05;;;;;;;33.73;50.91;97951.78;4945847;28;20512;-70
2022/09/28 10:56:36;;;;;;;44.20;26.08;;;;;;;33.63;51.43;97955.28;4972534;28;20557;-68
2022/09/28 10:59:47;;;;;;;45.47;27.20;;;;;;;33.49;52.35;97946.78;4983803;28;20057;-69
2022/09/28 11:02:37;;;;;;;41.13;26.70;;;;;;;33.50;51.63;97954.75;4983500;28;20510;-69
2022/09/28 11:05:32;;;;;;;41.47;28.77;;;;;;;33.37;52.84;97950.69;4965117;28;20043;-69
2022/09/28 11:08:24;;;;;;;33.03;26.58;;;;;;;33.38;52.28;97951.47;4974705;28;20133;-70
2022/09/28 11:11:16;;;;;;;37.00;27.23;;;;;;;33.33;52.78;97947.88;4975541;28;20054;-69
2022/09/28 11:14:25;;;;;;;38.88;27.25;;;;;;;33.16;54.71;97945.72;4984732;28;20050;-67
2022/09/28 11:17:29;;;;;;;38.35;28.17;;;;;;;33.11;56.09;97951.63;4982287;28;20058;-69
2022/09/28 11:20:24;;;;;;;50.75;28.50;;;;;;;33.00;54.37;97948.75;4983448;28;20056;-68
2022/09/28 11:23:25;;;;;;;36.17;27.08;;;;;;;33.11;55.84;97946.88;4988451;28;20046;-67
2022/09/28 11:26:21;;;;;;;43.85;28.73;;;;;;;33.09;54.88;97945.63;4977105;28;20058;-68
2022/09/28 11:29:11;;;;;;;35.42;26.83;;;;;;;33.03;55.33;97950.72;4971808;28;20054;-68
2022/09/28 11:32:05;;;;;;;37.28;28.23;;;;;;;32.95;55.99;97949.88;4972649;28;20422;-69
2022/09/28 11:35:25;;;;;;;39.75;27.75;;;;;;;32.96;54.34;97951.47;4976778;28;20161;-70
2022/09/28 11:38:34;;;;;;;36.22;28.05;;;;;;;33.00;55.20;97954.28;4971731;28;20054;-69
2022/09/28 11:42:26;;;;;;;39.38;27.23;;;;;;;32.99;55.32;97951.91;4960383;28;20050;-69
2022/09/28 11:45:33;;;;;;;39.42;28.38;;;;;;;32.83;53.33;97954.88;4984605;28;20132;-69
2022/09/28 11:48:56;;;;;;;37.28;27.38;;;;;;;32.90;53.69;97958.53;4987803;28;20192;-71
2022/09/28 11:51:39;;;;;;;39.15;27.98;;;;;;;32.88;53.24;97954.56;4968856;28;20068;-69
2022/09/28 11:54:50;;;;;;;41.10;28.83;;;;;;;32.85;54.11;97958.91;4969751;28;20050;-71
2022/09/28 11:57:48;;;;;;;44.05;30.02;;;;;;;32.82;56.32;97956.88;4970477;28;20062;-71
2022/09/28 12:00:34;;;;;;;49.92;30.80;;;;;;;32.64;55.62;97947.56;4986083;28;20054;-70
2022/09/28 12:03:31;;;;;;;42.85;29.92;;;;;;;32.71;57.52;97955.97;4967884;28;20065;-70
2022/09/28 12:06:18;;;;;;;44.50;31.13;;;;;;;32.58;59.35;97955.44;4987692;28;20077;-70
2022/09/28 12:09:22;;;;;;;45.45;30.85;;;;;;;32.55;57.39;97959.72;4988083;28;20377;-70
2022/09/28 12:12:34;;;;;;;44.42;31.52;;;;;;;32.50;57.60;97960.09;4986630;28;20065;-70
2022/09/28 12:15:28;;;;;;;42.15;29.55;;;;;;;32.40;57.67;97969.06;4968194;28;20046;-72
2022/09/28 12:18:38;;;;;;;44.30;31.90;;;;;;;32.44;58.26;97967.13;4980440;28;20101;-69
2022/09/28 12:21:50;;;;;;;44.33;30.15;;;;;;;32.47;58.76;97971.94;4982032;28;20124;-70
2022/09/28 12:24:44;;;;;;;42.25;30.00;;;;;;;32.60;58.23;97963.38;4986201;28;20053;-71
2022/09/28 12:27:42;;;;;;;38.70;28.10;;;;;;;32.50;56.59;97965.63;4986917;28;20057;-72
2022/09/28 12:30:29;;;;;;;42.95;25.58;;;;;;;32.46;57.04;97964.78;4974426;28;20046;-71
2022/09/28 12:33:20;;;;;;;37.25;23.98;;;;;;;32.54;56.11;97957.31;4969369;28;20058;-70
2022/09/28 12:36:29;;;;;;;36.08;22.77;;;;;;;32.49;54.01;97964.03;4986040;28;20054;-68
2022/09/28 12:39:28;;;;;;;28.88;20.15;;;;;;;32.42;54.05;97960.38;4985265;28;20060;-69
2022/09/28 12:43:27;;;;;;;31.38;20.40;;;;;;;32.47;53.69;97963.59;4967773;28;20043;-68
2022/09/28 12:46:31;;;;;;;32.03;21.10;;;;;;;32.53;53.69;97964.88;4966199;28;20046;-68
2022/09/28 12:49:43;;;;;;;29.25;19.50;;;;;;;32.51;54.29;97967.22;4966307;28;20046;-67
2022/09/28 12:53:08;;;;;;;34.17;21.00;;;;;;;32.45;53.82;97963.19;4967715;28;20067;-68
2022/09/28 12:56:09;;;;;;;41.20;20.50;;;;;;;32.37;54.08;97955.94;4987204;28;20492;-67
2022/09/28 12:59:24;;;;;;;30.73;19.45;;;;;;;32.21;55.10;97967.22;4985477;28;20050;-67
2022/09/28 13:02:41;;;;;;;26.58;19.25;;;;;;;32.18;55.40;97952.13;4971442;28;20063;-69
2022/09/28 13:05:59;;;;;;;51.33;20.33;;;;;;;32.14;55.43;97959.63;4627497;28;10000393;-68
2022/09/28 13:08:54;;;;;;;34.30;19.60;;;;;;;32.09;55.46;97962.72;4947176;28;20494;-68
2022/09/28 13:12:09;;;;;;;39.30;20.58;;;;;;;32.01;55.90;97955.44;4986958;28;20116;-71
2022/09/28 13:15:16;;;;;;;30.15;20.17;;;;;;;31.97;56.16;97957.38;4965640;28;20046;-67
2022/09/28 13:18:08;;;;;;;28.10;19.23;;;;;;;31.87;58.10;97972.66;4979424;28;20054;-70
2022/09/28 13:21:25;;;;;;;37.78;19.95;;;;;;;31.71;60.14;97964.53;4982481;28;20050;-70
2022/09/28 13:24:10;;;;;;;42.30;19.40;;;;;;;31.66;59.54;97967.59;4980239;28;20487;-70
2022/09/28 13:27:30;;;;;;;34.07;20.60;;;;;;;31.68;60.16;97970.84;4638494;28;10000299;-69
2022/09/28 13:30:07;;;;;;;41.67;20.38;;;;;;;31.60;60.22;97974.66;4980943;28;20117;-69
2022/09/28 13:33:07;;;;;;;38.67;20.25;;;;;;;31.53;59.85;97980.91;4990256;28;20054;-70
2022/09/28 13:35:43;;;;;;;39.45;21.55;;;;;;;31.45;60.08;97970.00;4981937;28;20050;-70
2022/09/28 13:38:52;;;;;;;44.88;22.55;;;;;;;31.42;60.87;97977.91;4982251;28;20046;-69
2022/09/28 13:41:36;;;;;;;32.60;20.25;;;;;;;31.37;60.68;97980.97;4983530;28;20046;-69